Time;durP1;ratioP1;P1;durP2;ratioP2;P2;SDS_P1;SDS_P2;PMS_P1;PMS_P2;Temp;Humidity;BMP_temperature;BMP_pressure;BME280_temperature;BME280_humidity;BME280_pressure;Samples;Min_cycle;Max_cycle;Signal;HPM_P1;HPM_P2
2024/03/07 00:02:20;;;;;;;17.23;6.70;;;;;;;;;;5081426;28;20032;-74
2024/03/07 00:04:46;;;;;;;17.40;6.15;;;;;;;;;;5043457;28;20471;-74
2024/03/07 00:07:12;;;;;;;20.20;8.07;;;;;;;;;;5080000;28;20048;-73
2024/03/07 00:09:38;;;;;;;18.40;7.70;;;;;;;;;;5059906;28;20119;-73
2024/03/07 00:12:05;;;;;;;18.25;9.40;;;;;;;;;;5061973;28;20033;-73
2024/03/07 00:14:31;;;;;;;29.88;10.95;;;;;;;;;;5081373;28;20032;-73
2024/03/07 00:16:59;;;;;;;16.73;11.20;;;;;;;;;;5080024;28;20036;-73
2024/03/07 00:19:26;;;;;;;15.30;7.88;;;;;;;;;;5064909;28;20034;-74
2024/03/07 00:21:55;;;;;;;14.07;6.75;;;;;;;;;;5081359;28;20637;-74
2024/03/07 00:24:21;;;;;;;21.08;9.68;;;;;;;;;;5077232;28;20033;-74
2024/03/07 00:26:50;;;;;;;11.68;8.85;;;;;;;;;;5065235;28;20127;-73
2024/03/07 00:29:17;;;;;;;21.50;9.40;;;;;;;;;;5081802;28;20532;-74
2024/03/07 00:31:44;;;;;;;19.67;9.32;;;;;;;;;;5078157;28;20047;-74
2024/03/07 00:34:10;;;;;;;23.08;9.18;;;;;;;;;;5062560;28;20036;-75
2024/03/07 00:36:36;;;;;;;21.90;9.02;;;;;;;;;;5076198;28;20526;-74
2024/03/07 00:39:01;;;;;;;23.52;9.93;;;;;;;;;;5078468;28;20519;-74
2024/03/07 00:41:27;;;;;;;24.98;9.32;;;;;;;;;;5064770;28;20032;-74
2024/03/07 00:43:53;;;;;;;24.58;10.43;;;;;;;;;;5077518;28;20029;-74
2024/03/07 00:46:19;;;;;;;20.58;9.52;;;;;;;;;;5063211;28;20534;-74
2024/03/07 00:48:46;;;;;;;15.73;9.75;;;;;;;;;;5076659;28;20040;-74
2024/03/07 00:51:11;;;;;;;15.52;7.68;;;;;;;;;;5077979;28;20121;-74
2024/03/07 00:53:37;;;;;;;15.55;8.55;;;;;;;;;;5080959;28;20065;-74
2024/03/07 00:56:03;;;;;;;20.80;8.88;;;;;;;;;;5079173;28;20087;-73
2024/03/07 00:58:30;;;;;;;17.55;7.88;;;;;;;;;;5052494;28;20044;-74
2024/03/07 01:00:56;;;;;;;27.85;9.13;;;;;;;;;;5022958;28;20083;-73
2024/03/07 01:03:24;;;;;;;11.35;7.70;;;;;;;;;;5038601;28;20064;-74
2024/03/07 01:05:49;;;;;;;19.65;9.23;;;;;;;;;;5031386;28;20532;-74
2024/03/07 01:08:16;;;;;;;18.65;9.10;;;;;;;;;;5027164;28;20072;-73
2024/03/07 01:10:42;;;;;;;26.38;8.80;;;;;;;;;;5038811;28;20135;-74
2024/03/07 01:13:15;;;;;;;27.50;9.15;;;;;;;;;;5040404;28;20025;-73
2024/03/07 01:15:41;;;;;;;24.73;8.40;;;;;;;;;;5037416;28;20037;-74
2024/03/07 01:18:07;;;;;;;16.42;8.52;;;;;;;;;;5051770;28;20051;-73
2024/03/07 01:20:33;;;;;;;11.13;8.13;;;;;;;;;;5065687;28;20351;-74
2024/03/07 01:22:58;;;;;;;14.15;8.70;;;;;;;;;;5063067;28;20119;-74
2024/03/07 01:25:24;;;;;;;19.20;8.63;;;;;;;;;;5064516;28;20036;-74
2024/03/07 01:27:51;;;;;;;21.50;8.73;;;;;;;;;;5059276;28;20044;-74
2024/03/07 01:30:16;;;;;;;12.35;8.88;;;;;;;;;;5061068;28;20025;-75
2024/03/07 01:32:43;;;;;;;13.82;8.98;;;;;;;;;;5065102;28;20106;-74
2024/03/07 01:35:09;;;;;;;22.80;9.05;;;;;;;;;;5057809;28;20021;-74
2024/03/07 01:37:35;;;;;;;21.95;8.68;;;;;;;;;;5059787;28;20087;-75
2024/03/07 01:40:02;;;;;;;18.85;8.45;;;;;;;;;;5061829;28;20059;-75
2024/03/07 01:42:29;;;;;;;30.17;8.55;;;;;;;;;;5070931;28;20514;-75
2024/03/07 01:44:55;;;;;;;35.97;9.32;;;;;;;;;;5058040;28;20040;-74
2024/03/07 01:47:21;;;;;;;15.20;8.65;;;;;;;;;;5064860;28;20056;-75
2024/03/07 01:49:48;;;;;;;12.88;8.48;;;;;;;;;;5059003;28;20037;-74
2024/03/07 01:52:14;;;;;;;15.05;8.18;;;;;;;;;;5061954;28;20033;-74
2024/03/07 01:54:39;;;;;;;10.77;8.05;;;;;;;;;;5059834;28;20036;-74
2024/03/07 01:57:05;;;;;;;20.73;9.18;;;;;;;;;;5050153;28;20037;-74
2024/03/07 01:59:32;;;;;;;20.25;8.77;;;;;;;;;;5065378;28;20052;-75
2024/03/07 02:01:58;;;;;;;17.85;7.97;;;;;;;;;;5045808;28;20028;-74
2024/03/07 02:04:24;;;;;;;13.48;6.18;;;;;;;;;;5064021;28;20036;-74
2024/03/07 02:06:50;;;;;;;11.32;5.63;;;;;;;;;;5062957;28;20043;-74
2024/03/07 02:09:17;;;;;;;11.00;7.30;;;;;;;;;;5044900;28;20543;-74
2024/03/07 02:11:43;;;;;;;10.65;5.05;;;;;;;;;;5036763;28;20041;-74
2024/03/07 02:14:08;;;;;;;10.60;4.90;;;;;;;;;;5044001;28;20570;-74
2024/03/07 02:16:35;;;;;;;9.93;5.55;;;;;;;;;;5041725;28;20512;-73
2024/03/07 02:19:20;;;;;;;20.08;10.95;;;;;;;;;;5063239;28;20603;-74
2024/03/07 02:21:46;;;;;;;25.15;12.15;;;;;;;;;;5053607;28;20028;-74
2024/03/07 02:24:12;;;;;;;26.58;13.82;;;;;;;;;;5054018;28;20203;-74
2024/03/07 02:26:39;;;;;;;30.65;13.10;;;;;;;;;;5040550;28;20027;-75
2024/03/07 02:29:05;;;;;;;34.55;15.38;;;;;;;;;;5046538;28;20057;-74
2024/03/07 02:31:40;;;;;;;66.03;22.33;;;;;;;;;;5041058;28;20374;-74
2024/03/07 02:34:10;;;;;;;87.03;27.98;;;;;;;;;;5040444;28;20463;-74
2024/03/07 02:36:36;;;;;;;79.57;28.40;;;;;;;;;;5010388;28;20520;-74
2024/03/07 02:39:02;;;;;;;83.93;31.20;;;;;;;;;;5063582;28;20071;-74
2024/03/07 02:41:28;;;;;;;84.15;31.27;;;;;;;;;;5064165;28;20403;-74
2024/03/07 02:43:54;;;;;;;93.22;28.17;;;;;;;;;;5060177;28;20037;-74
2024/03/07 02:46:20;;;;;;;55.65;21.08;;;;;;;;;;5062591;28;20056;-74
2024/03/07 02:48:45;;;;;;;65.25;26.38;;;;;;;;;;5043282;28;20049;-75
2024/03/07 02:51:11;;;;;;;73.43;26.90;;;;;;;;;;5023326;28;20029;-74
2024/03/07 02:53:38;;;;;;;55.53;21.85;;;;;;;;;;5043135;28;20040;-74
2024/03/07 02:56:07;;;;;;;31.33;14.70;;;;;;;;;;5042287;28;20029;-74
2024/03/07 02:58:33;;;;;;;35.38;14.32;;;;;;;;;;5043973;28;20040;-74
2024/03/07 03:01:00;;;;;;;22.92;10.32;;;;;;;;;;5000399;28;20040;-74
2024/03/07 03:03:26;;;;;;;20.48;11.80;;;;;;;;;;5056646;28;20161;-74
2024/03/07 03:05:52;;;;;;;37.13;14.05;;;;;;;;;;5032363;28;20036;-74
2024/03/07 03:08:18;;;;;;;28.50;13.32;;;;;;;;;;5027431;28;20044;-74
2024/03/07 03:10:44;;;;;;;15.65;9.93;;;;;;;;;;5017464;28;20029;-74
2024/03/07 03:13:10;;;;;;;20.90;10.50;;;;;;;;;;5062364;28;20094;-74
2024/03/07 03:15:37;;;;;;;23.38;12.07;;;;;;;;;;5057749;28;20036;-74
2024/03/07 03:18:05;;;;;;;10.60;7.95;;;;;;;;;;5049328;28;20471;-74
2024/03/07 03:20:34;;;;;;;8.90;5.63;;;;;;;;;;5068952;28;20032;-74
2024/03/07 03:23:02;;;;;;;16.15;8.13;;;;;;;;;;5051913;28;20368;-73
2024/03/07 03:25:28;;;;;;;12.02;7.70;;;;;;;;;;5068459;28;20499;-74
2024/03/07 03:27:54;;;;;;;13.18;7.47;;;;;;;;;;5060768;28;20048;-74
2024/03/07 03:30:21;;;;;;;11.55;7.05;;;;;;;;;;5085862;28;20064;-74
2024/03/07 03:32:47;;;;;;;9.60;7.50;;;;;;;;;;5060874;28;20052;-74
2024/03/07 03:35:13;;;;;;;7.30;5.60;;;;;;;;;;5070965;28;20040;-73
2024/03/07 03:37:42;;;;;;;22.63;8.40;;;;;;;;;;5066133;28;20430;-74
2024/03/07 03:40:15;;;;;;;18.88;9.43;;;;;;;;;;5030087;28;20111;-74
2024/03/07 03:42:41;;;;;;;14.68;6.72;;;;;;;;;;5080737;28;20036;-73
2024/03/07 03:45:09;;;;;;;14.95;7.30;;;;;;;;;;5077490;28;20047;-74
2024/03/07 03:47:38;;;;;;;15.55;7.68;;;;;;;;;;5075747;28;20059;-73
2024/03/07 03:50:04;;;;;;;4.78;4.07;;;;;;;;;;5078698;28;20408;-74
2024/03/07 03:52:30;;;;;;;8.38;6.40;;;;;;;;;;5070006;28;20480;-72
2024/03/07 03:54:56;;;;;;;20.38;6.43;;;;;;;;;;5079729;28;20117;-73
2024/03/07 03:57:22;;;;;;;13.88;6.72;;;;;;;;;;5076665;28;20104;-72
2024/03/07 03:59:49;;;;;;;7.25;5.55;;;;;;;;;;5081341;28;20141;-72
2024/03/07 04:02:16;;;;;;;8.38;4.72;;;;;;;;;;5084304;28;20042;-72
2024/03/07 04:04:42;;;;;;;12.43;8.52;;;;;;;;;;5063123;28;20082;-73
2024/03/07 04:07:08;;;;;;;17.60;10.05;;;;;;;;;;5079891;28;20032;-74
2024/03/07 04:09:34;;;;;;;18.27;7.38;;;;;;;;;;5061939;28;20067;-73
2024/03/07 04:12:00;;;;;;;11.75;6.80;;;;;;;;;;5059965;28;20028;-74
2024/03/07 04:14:26;;;;;;;13.85;7.95;;;;;;;;;;5080591;28;20031;-74
2024/03/07 04:16:55;;;;;;;20.13;8.50;;;;;;;;;;5079738;28;20097;-73
2024/03/07 04:19:21;;;;;;;13.02;7.50;;;;;;;;;;5079251;28;20032;-74
2024/03/07 04:21:46;;;;;;;13.88;7.63;;;;;;;;;;5049973;28;20146;-74
2024/03/07 04:24:12;;;;;;;17.10;7.55;;;;;;;;;;5066174;28;20036;-74
2024/03/07 04:26:41;;;;;;;6.95;4.85;;;;;;;;;;5063585;28;20352;-74
2024/03/07 04:29:08;;;;;;;14.65;9.05;;;;;;;;;;5043801;28;20101;-73
2024/03/07 04:31:34;;;;;;;18.83;9.63;;;;;;;;;;5076876;28;20429;-79
2024/03/07 04:34:00;;;;;;;11.65;8.73;;;;;;;;;;5073923;28;20034;-73
2024/03/07 04:36:45;;;;;;;17.00;9.38;;;;;;;;;;5061317;28;20510;-74
2024/03/07 04:39:22;;;;;;;7.85;5.80;;;;;;;;;;5065354;28;20036;-73
2024/03/07 04:41:48;;;;;;;13.27;7.63;;;;;;;;;;5068751;28;20036;-74
2024/03/07 04:44:14;;;;;;;6.60;5.13;;;;;;;;;;5083952;28;20048;-73
2024/03/07 04:46:42;;;;;;;14.98;7.47;;;;;;;;;;5082569;28;20029;-74
2024/03/07 04:49:09;;;;;;;8.18;6.20;;;;;;;;;;5053787;28;20561;-75
2024/03/07 04:51:34;;;;;;;16.35;6.60;;;;;;;;;;5054362;28;20606;-76
2024/03/07 04:54:00;;;;;;;18.98;6.57;;;;;;;;;;5087524;28;20106;-76
2024/03/07 04:56:26;;;;;;;10.80;6.32;;;;;;;;;;5087346;28;20066;-75
2024/03/07 04:58:53;;;;;;;12.38;7.90;;;;;;;;;;5085012;28;20075;-75
2024/03/07 05:01:20;;;;;;;5.60;4.72;;;;;;;;;;5066380;28;20475;-75
2024/03/07 05:03:45;;;;;;;11.68;6.38;;;;;;;;;;5085073;28;20115;-75
2024/03/07 05:06:12;;;;;;;9.90;6.65;;;;;;;;;;5087375;28;20118;-74
2024/03/07 05:08:38;;;;;;;13.43;6.80;;;;;;;;;;5085566;28;20067;-74
2024/03/07 05:11:04;;;;;;;16.17;7.57;;;;;;;;;;5071376;28;20411;-75
2024/03/07 05:13:31;;;;;;;12.30;6.38;;;;;;;;;;5085676;28;20067;-75
2024/03/07 05:15:57;;;;;;;6.95;4.00;;;;;;;;;;5086087;28;20047;-75
2024/03/07 05:18:23;;;;;;;18.80;9.00;;;;;;;;;;5086774;28;20094;-73
2024/03/07 05:20:49;;;;;;;15.50;7.00;;;;;;;;;;5086581;28;20446;-74
2024/03/07 05:23:15;;;;;;;9.55;6.13;;;;;;;;;;5069709;28;20024;-75
2024/03/07 05:25:41;;;;;;;13.85;7.57;;;;;;;;;;5084943;28;20135;-73
2024/03/07 05:28:07;;;;;;;12.38;8.07;;;;;;;;;;5088214;28;20047;-73
2024/03/07 05:30:33;;;;;;;15.43;7.68;;;;;;;;;;5086029;28;20046;-74
2024/03/07 05:33:01;;;;;;;10.25;6.97;;;;;;;;;;5070406;28;20028;-75
2024/03/07 05:35:29;;;;;;;15.35;6.10;;;;;;;;;;5087292;28;20067;-80
2024/03/07 05:37:56;;;;;;;3.60;3.40;;;;;;;;;;5086404;28;20032;-75
2024/03/07 05:40:22;;;;;;;18.00;7.45;;;;;;;;;;5086223;28;20043;-75
2024/03/07 05:42:48;;;;;;;12.65;7.25;;;;;;;;;;5086402;28;20028;-75
2024/03/07 05:45:17;;;;;;;12.48;5.13;;;;;;;;;;5088352;28;20040;-74
2024/03/07 05:47:43;;;;;;;14.48;6.00;;;;;;;;;;5081788;28;20049;-75
2024/03/07 05:50:10;;;;;;;10.98;5.90;;;;;;;;;;5085668;28;20428;-75
2024/03/07 05:52:36;;;;;;;7.45;5.32;;;;;;;;;;5085505;28;20590;-74
2024/03/07 05:55:06;;;;;;;15.48;7.30;;;;;;;;;;5086541;28;20032;-74
2024/03/07 05:57:32;;;;;;;22.30;7.38;;;;;;;;;;5085310;28;20040;-74
2024/03/07 05:59:58;;;;;;;7.93;6.75;;;;;;;;;;5068766;28;20108;-73
2024/03/07 06:02:24;;;;;;;13.77;6.38;;;;;;;;;;5051214;28;20522;-74
2024/03/07 06:04:50;;;;;;;15.77;7.05;;;;;;;;;;5067725;28;20044;-75
2024/03/07 06:07:16;;;;;;;10.38;6.68;;;;;;;;;;5063497;28;20389;-74
2024/03/07 06:09:43;;;;;;;9.25;6.30;;;;;;;;;;5064634;28;20121;-75
2024/03/07 06:12:09;;;;;;;13.15;6.65;;;;;;;;;;5085833;28;20453;-75
2024/03/07 06:14:35;;;;;;;8.25;5.63;;;;;;;;;;5035366;28;20472;-74
2024/03/07 06:17:01;;;;;;;12.23;5.78;;;;;;;;;;5084567;28;20051;-75
2024/03/07 06:19:27;;;;;;;15.52;8.00;;;;;;;;;;5086765;28;20031;-75
2024/03/07 06:21:54;;;;;;;23.63;8.15;;;;;;;;;;5068828;28;20131;-75
2024/03/07 06:24:22;;;;;;;6.95;4.25;;;;;;;;;;5085620;28;20526;-75
2024/03/07 06:26:59;;;;;;;12.15;6.45;;;;;;;;;;5084456;28;20118;-75
2024/03/07 06:29:27;;;;;;;8.15;5.85;;;;;;;;;;5047537;28;20216;-76
2024/03/07 06:31:54;;;;;;;25.00;7.53;;;;;;;;;;5059513;28;20029;-76
2024/03/07 06:34:20;;;;;;;11.85;8.02;;;;;;;;;;5045908;28;20467;-75
2024/03/07 06:36:46;;;;;;;16.25;7.78;;;;;;;;;;5059726;28;20115;-76
2024/03/07 06:39:12;;;;;;;20.27;9.30;;;;;;;;;;5043799;28;20109;-75
2024/03/07 06:41:38;;;;;;;14.73;8.23;;;;;;;;;;5059938;28;20032;-75
2024/03/07 06:44:04;;;;;;;17.45;9.27;;;;;;;;;;5066211;28;20020;-76
2024/03/07 06:46:32;;;;;;;15.70;8.82;;;;;;;;;;5066119;28;20036;-76
2024/03/07 06:48:57;;;;;;;22.65;9.57;;;;;;;;;;5032655;28;20542;-76
2024/03/07 06:51:24;;;;;;;16.60;9.20;;;;;;;;;;5033606;28;20058;-76
2024/03/07 06:53:50;;;;;;;18.70;8.88;;;;;;;;;;5045824;28;20029;-76
2024/03/07 06:56:16;;;;;;;15.65;9.48;;;;;;;;;;5063758;28;20090;-75
2024/03/07 06:58:42;;;;;;;25.00;8.73;;;;;;;;;;5062540;28;20403;-76
2024/03/07 07:01:12;;;;;;;12.88;8.23;;;;;;;;;;5075108;28;20412;-76
2024/03/07 07:03:38;;;;;;;16.30;7.95;;;;;;;;;;5065979;28;20052;-76
2024/03/07 07:06:06;;;;;;;19.05;8.05;;;;;;;;;;5071620;28;20413;-76
2024/03/07 07:08:33;;;;;;;12.98;6.82;;;;;;;;;;5072400;28;20045;-76
2024/03/07 07:10:59;;;;;;;16.67;8.63;;;;;;;;;;5049293;28;20025;-76
2024/03/07 07:13:26;;;;;;;12.98;7.93;;;;;;;;;;5080384;28;20123;-76
2024/03/07 07:15:53;;;;;;;16.52;8.07;;;;;;;;;;5067422;28;20029;-76
2024/03/07 07:18:20;;;;;;;26.10;8.88;;;;;;;;;;5068737;28;20075;-76
2024/03/07 07:20:47;;;;;;;18.00;8.38;;;;;;;;;;5049118;28;20576;-76
2024/03/07 07:23:13;;;;;;;14.23;7.18;;;;;;;;;;5068526;28;20533;-76
2024/03/07 07:25:40;;;;;;;14.27;7.75;;;;;;;;;;5050030;28;20028;-77
2024/03/07 07:28:07;;;;;;;19.95;8.38;;;;;;;;;;5058232;28;20053;-76
2024/03/07 07:30:33;;;;;;;22.58;7.47;;;;;;;;;;5083554;28;20039;-76
2024/03/07 07:32:59;;;;;;;20.92;7.95;;;;;;;;;;5083232;28;20036;-76
2024/03/07 07:35:26;;;;;;;20.42;7.20;;;;;;;;;;5062902;28;20161;-76
2024/03/07 07:37:53;;;;;;;15.98;7.85;;;;;;;;;;5083756;28;20161;-76
2024/03/07 07:40:19;;;;;;;9.52;7.18;;;;;;;;;;5050015;28;20460;-76
2024/03/07 07:42:46;;;;;;;16.13;7.45;;;;;;;;;;5084895;28;20138;-75
2024/03/07 07:45:13;;;;;;;13.35;7.20;;;;;;;;;;5079426;28;20731;-75
2024/03/07 07:47:40;;;;;;;19.83;7.10;;;;;;;;;;5080238;28;20091;-76
2024/03/07 07:50:17;;;;;;;11.30;7.50;;;;;;;;;;5045529;28;20526;-75
2024/03/07 07:52:44;;;;;;;9.52;6.63;;;;;;;;;;5054378;28;20062;-76
2024/03/07 07:55:19;;;;;;;10.70;6.80;;;;;;;;;;5078619;28;20036;-76
2024/03/07 07:57:46;;;;;;;10.73;6.47;;;;;;;;;;5087640;28;20040;-76
2024/03/07 08:00:21;;;;;;;10.45;6.97;;;;;;;;;;5069372;28;20043;-77
2024/03/07 08:02:48;;;;;;;9.07;6.68;;;;;;;;;;5081100;28;20456;-76
2024/03/07 08:05:17;;;;;;;14.73;6.97;;;;;;;;;;5065200;28;20039;-75
2024/03/07 08:07:44;;;;;;;13.15;6.72;;;;;;;;;;5080758;28;20139;-75
2024/03/07 08:10:10;;;;;;;18.52;6.90;;;;;;;;;;5082752;28;20062;-75
2024/03/07 08:12:36;;;;;;;11.65;6.72;;;;;;;;;;5083569;28;20453;-75
2024/03/07 08:15:03;;;;;;;12.32;6.22;;;;;;;;;;5074032;28;20028;-76
2024/03/07 08:17:31;;;;;;;19.42;6.90;;;;;;;;;;5047277;28;20422;-75
2024/03/07 08:19:58;;;;;;;20.95;5.93;;;;;;;;;;5063216;28;20085;-75
2024/03/07 08:22:24;;;;;;;12.88;5.45;;;;;;;;;;5084200;28;20028;-76
2024/03/07 08:24:51;;;;;;;7.93;5.32;;;;;;;;;;5061096;28;20052;-76
2024/03/07 08:27:18;;;;;;;12.60;5.22;;;;;;;;;;5075995;28;20062;-75
2024/03/07 08:29:43;;;;;;;7.97;5.95;;;;;;;;;;5083634;28;20070;-76
2024/03/07 08:32:09;;;;;;;13.73;6.00;;;;;;;;;;5081907;28;20095;-76
2024/03/07 08:34:35;;;;;;;8.25;5.63;;;;;;;;;;5081988;28;20465;-75
2024/03/07 08:37:03;;;;;;;14.88;4.95;;;;;;;;;;5083343;28;20070;-76
2024/03/07 08:39:29;;;;;;;9.68;5.93;;;;;;;;;;5067861;28;20043;-76
2024/03/07 08:41:55;;;;;;;12.07;6.80;;;;;;;;;;5082156;28;20412;-75
2024/03/07 08:44:24;;;;;;;16.83;6.75;;;;;;;;;;5069875;28;20086;-75
2024/03/07 08:46:50;;;;;;;16.67;6.78;;;;;;;;;;5063244;28;20067;-76
2024/03/07 08:49:17;;;;;;;10.48;6.30;;;;;;;;;;5082402;28;20110;-75
2024/03/07 08:51:43;;;;;;;8.93;5.78;;;;;;;;;;5082028;28;20028;-76
2024/03/07 08:54:09;;;;;;;17.05;6.15;;;;;;;;;;5083175;28;20059;-75
2024/03/07 08:56:35;;;;;;;6.78;5.53;;;;;;;;;;5063011;28;20474;-76
2024/03/07 08:59:02;;;;;;;9.35;5.65;;;;;;;;;;5085736;28;20771;-76
2024/03/07 09:01:28;;;;;;;11.10;5.65;;;;;;;;;;5080629;28;20119;-76
2024/03/07 09:03:54;;;;;;;18.88;5.53;;;;;;;;;;5084235;28;20131;-75
2024/03/07 09:06:20;;;;;;;9.43;5.28;;;;;;;;;;5059471;28;20107;-75
2024/03/07 09:08:45;;;;;;;8.32;5.50;;;;;;;;;;5081935;28;20051;-75
2024/03/07 09:11:12;;;;;;;9.60;5.53;;;;;;;;;;5084137;28;20028;-76
2024/03/07 09:13:39;;;;;;;6.60;4.80;;;;;;;;;;5080529;28;20032;-75
2024/03/07 09:16:06;;;;;;;9.55;5.97;;;;;;;;;;5053876;28;20032;-76
2024/03/07 09:18:31;;;;;;;4.82;4.38;;;;;;;;;;5079750;28;20046;-76
2024/03/07 09:20:57;;;;;;;6.43;4.20;;;;;;;;;;5062618;28;20059;-76
2024/03/07 09:23:23;;;;;;;10.20;4.05;;;;;;;;;;5081452;28;20058;-75
2024/03/07 09:25:49;;;;;;;6.75;3.33;;;;;;;;;;5078277;28;20032;-76
2024/03/07 09:28:15;;;;;;;4.68;3.90;;;;;;;;;;5065773;28;20139;-74
2024/03/07 09:30:41;;;;;;;7.88;3.90;;;;;;;;;;5075137;28;22003;-75
2024/03/07 09:33:10;;;;;;;3.88;3.50;;;;;;;;;;5078860;28;20074;-75
2024/03/07 09:35:37;;;;;;;6.70;3.60;;;;;;;;;;5078243;28;20040;-74
2024/03/07 09:38:04;;;;;;;6.05;3.65;;;;;;;;;;5080330;28;20459;-75
2024/03/07 09:40:30;;;;;;;12.07;4.13;;;;;;;;;;5079907;28;20060;-75
2024/03/07 09:42:56;;;;;;;3.67;3.05;;;;;;;;;;5084002;28;20519;-76
2024/03/07 09:45:23;;;;;;;7.40;2.80;;;;;;;;;;5067528;28;20496;-76
2024/03/07 09:47:51;;;;;;;4.93;3.63;;;;;;;;;;5079759;28;20058;-75
2024/03/07 09:50:21;;;;;;;5.85;3.17;;;;;;;;;;5084190;28;20036;-75
2024/03/07 09:52:49;;;;;;;8.20;3.50;;;;;;;;;;5081423;28;20554;-75
2024/03/07 09:55:18;;;;;;;5.55;3.30;;;;;;;;;;5082512;28;20024;-74
2024/03/07 09:57:47;;;;;;;5.95;3.20;;;;;;;;;;5082377;28;20048;-75
2024/03/07 10:00:22;;;;;;;4.47;3.35;;;;;;;;;;5076902;28;20064;-75
2024/03/07 10:02:50;;;;;;;4.15;3.47;;;;;;;;;;5060071;28;20104;-75
2024/03/07 10:05:16;;;;;;;5.35;3.70;;;;;;;;;;5060855;28;20043;-74
2024/03/07 10:07:42;;;;;;;4.07;3.10;;;;;;;;;;5056699;28;20041;-75
2024/03/07 10:10:11;;;;;;;5.25;3.35;;;;;;;;;;5078686;28;20050;-75
2024/03/07 10:12:38;;;;;;;3.60;3.30;;;;;;;;;;5060240;28;20029;-76
2024/03/07 10:15:10;;;;;;;2.08;1.88;;;;;;;;;;5067914;28;20529;-75
2024/03/07 10:17:37;;;;;;;3.63;3.22;;;;;;;;;;5065716;28;20048;-75
2024/03/07 10:20:03;;;;;;;7.45;3.00;;;;;;;;;;5077783;28;20619;-75
2024/03/07 10:22:29;;;;;;;8.60;3.40;;;;;;;;;;5060603;28;20404;-75
2024/03/07 10:24:56;;;;;;;4.75;2.83;;;;;;;;;;5064558;28;20033;-75
2024/03/07 10:27:25;;;;;;;4.05;3.65;;;;;;;;;;5055336;28;20049;-74
2024/03/07 10:29:51;;;;;;;3.55;3.20;;;;;;;;;;5057239;28;20102;-75
2024/03/07 10:32:20;;;;;;;3.00;2.80;;;;;;;;;;5066758;28;20086;-75
2024/03/07 10:34:48;;;;;;;1.83;1.73;;;;;;;;;;5063086;28;20033;-74
2024/03/07 10:37:16;;;;;;;4.75;2.72;;;;;;;;;;5066268;28;20046;-74
2024/03/07 10:39:45;;;;;;;2.70;2.25;;;;;;;;;;5066935;28;20045;-75
2024/03/07 10:42:15;;;;;;;2.70;2.50;;;;;;;;;;5063591;28;20029;-74
2024/03/07 10:44:45;;;;;;;3.28;2.95;;;;;;;;;;5064471;28;20079;-74
2024/03/07 10:47:15;;;;;;;2.55;2.35;;;;;;;;;;5060962;28;20033;-74
2024/03/07 10:49:45;;;;;;;3.17;2.55;;;;;;;;;;5060310;28;20055;-74
2024/03/07 10:52:13;;;;;;;6.07;3.10;;;;;;;;;;5060729;28;20070;-75
2024/03/07 10:54:57;;;;;;;3.30;3.08;;;;;;;;;;5063785;28;20566;-75
2024/03/07 10:57:39;;;;;;;3.13;2.83;;;;;;;;;;5054482;28;20090;-74
2024/03/07 11:00:24;;;;;;;8.80;2.88;;;;;;;;;;5073177;28;20131;-74
2024/03/07 11:02:53;;;;;;;6.47;3.42;;;;;;;;;;5058354;28;20071;-75
2024/03/07 11:05:19;;;;;;;3.35;2.80;;;;;;;;;;5065387;28;20519;-74
2024/03/07 11:07:45;;;;;;;5.10;3.35;;;;;;;;;;5079117;28;20084;-74
2024/03/07 11:10:11;;;;;;;3.20;2.92;;;;;;;;;;5055987;28;20036;-75
2024/03/07 11:12:39;;;;;;;9.23;3.17;;;;;;;;;;5070365;28;20082;-74
2024/03/07 11:15:06;;;;;;;3.03;2.72;;;;;;;;;;5074954;28;20123;-75
2024/03/07 11:17:33;;;;;;;5.22;3.05;;;;;;;;;;5081205;28;20432;-75
2024/03/07 11:20:17;;;;;;;4.13;3.30;;;;;;;;;;5078701;28;20123;-74
2024/03/07 11:22:45;;;;;;;3.20;2.90;;;;;;;;;;5062083;28;20059;-74
2024/03/07 11:25:11;;;;;;;3.75;2.20;;;;;;;;;;5063573;28;20059;-75
2024/03/07 11:27:42;;;;;;;3.97;2.65;;;;;;;;;;5076449;28;20482;-74
2024/03/07 11:30:08;;;;;;;4.45;3.10;;;;;;;;;;5080991;28;20044;-75
2024/03/07 11:32:37;;;;;;;2.13;2.03;;;;;;;;;;5063752;28;20067;-75
2024/03/07 11:35:07;;;;;;;1.88;1.77;;;;;;;;;;5079081;28;20029;-75
2024/03/07 11:37:48;;;;;;;4.32;2.80;;;;;;;;;;5078882;28;20520;-74
2024/03/07 11:40:20;;;;;;;;;;;;;;;;;;5082711;28;20024;-74
2024/03/07 11:42:47;;;;;;;2.78;2.55;;;;;;;;;;5083662;28;19924;-74
2024/03/07 11:45:24;;;;;;;2.80;1.98;;;;;;;;;;5056224;28;20494;-75
2024/03/07 11:47:51;;;;;;;3.03;2.60;;;;;;;;;;5059563;28;20044;-75
2024/03/07 11:50:19;;;;;;;3.40;2.90;;;;;;;;;;5090303;28;20044;-74
2024/03/07 11:52:46;;;;;;;5.00;2.85;;;;;;;;;;5051141;28;20038;-74
2024/03/07 11:55:12;;;;;;;5.68;2.67;;;;;;;;;;5070605;28;20024;-74
2024/03/07 11:57:38;;;;;;;3.15;2.90;;;;;;;;;;5065174;28;20044;-74
2024/03/07 12:00:10;;;;;;;3.17;2.80;;;;;;;;;;5084193;28;20107;-74
2024/03/07 12:02:39;;;;;;;4.10;3.05;;;;;;;;;;5071384;28;20440;-74
2024/03/07 12:05:05;;;;;;;3.20;3.00;;;;;;;;;;5077992;28;20034;-74
2024/03/07 12:07:32;;;;;;;3.00;2.80;;;;;;;;;;5043897;28;20052;-74
2024/03/07 12:09:59;;;;;;;3.20;2.95;;;;;;;;;;5078797;28;20143;-74
2024/03/07 12:12:27;;;;;;;3.40;3.15;;;;;;;;;;5077635;28;20116;-74
2024/03/07 12:14:54;;;;;;;3.17;2.92;;;;;;;;;;5081220;28;20036;-74
2024/03/07 12:17:20;;;;;;;3.83;2.90;;;;;;;;;;5059103;28;20115;-74
2024/03/07 12:19:47;;;;;;;3.75;3.35;;;;;;;;;;5061900;28;20063;-74
2024/03/07 12:22:13;;;;;;;4.50;3.75;;;;;;;;;;5076791;28;20582;-75
2024/03/07 12:24:40;;;;;;;4.30;3.60;;;;;;;;;;5054110;28;20052;-75
2024/03/07 12:27:10;;;;;;;8.82;3.80;;;;;;;;;;5080118;28;20403;-75
2024/03/07 12:29:54;;;;;;;4.50;3.80;;;;;;;;;;5081350;28;20040;-75
2024/03/07 12:32:20;;;;;;;5.13;4.60;;;;;;;;;;5050577;28;20040;-75
2024/03/07 12:34:46;;;;;;;3.33;3.03;;;;;;;;;;5082359;28;20434;-75
2024/03/07 12:37:16;;;;;;;4.78;4.35;;;;;;;;;;5084187;28;20388;-75
2024/03/07 12:39:58;;;;;;;4.57;3.83;;;;;;;;;;5083873;28;20035;-75
2024/03/07 12:42:24;;;;;;;10.35;4.22;;;;;;;;;;5069713;28;20035;-75
2024/03/07 12:44:50;;;;;;;5.25;4.15;;;;;;;;;;5067994;28;20028;-75
2024/03/07 12:47:16;;;;;;;6.32;4.65;;;;;;;;;;5065563;28;20073;-74
2024/03/07 12:49:45;;;;;;;3.58;3.20;;;;;;;;;;5083248;28;20036;-75
2024/03/07 12:52:15;;;;;;;6.55;4.00;;;;;;;;;;5067112;28;20039;-75
2024/03/07 12:54:41;;;;;;;4.28;3.80;;;;;;;;;;5082357;28;20028;-74
2024/03/07 12:57:08;;;;;;;3.28;2.70;;;;;;;;;;5081503;28;20510;-75
2024/03/07 12:59:37;;;;;;;3.05;2.83;;;;;;;;;;5085390;28;20059;-75
2024/03/07 13:02:03;;;;;;;3.10;2.90;;;;;;;;;;5083505;28;20028;-75
2024/03/07 13:04:30;;;;;;;3.15;2.85;;;;;;;;;;5085472;28;20047;-75
2024/03/07 13:06:59;;;;;;;3.10;2.80;;;;;;;;;;5081262;28;20513;-73
2024/03/07 13:09:26;;;;;;;3.38;3.08;;;;;;;;;;5064815;28;20036;-75
2024/03/07 13:11:53;;;;;;;2.80;2.60;;;;;;;;;;5085858;28;20036;-75
2024/03/07 13:14:20;;;;;;;2.80;2.60;;;;;;;;;;5089437;28;20137;-75
2024/03/07 13:16:46;;;;;;;4.35;3.10;;;;;;;;;;5088042;28;20048;-74
2024/03/07 13:19:14;;;;;;;3.03;2.67;;;;;;;;;;5070838;28;20044;-75
2024/03/07 13:21:40;;;;;;;4.43;2.70;;;;;;;;;;5086340;28;20387;-75
2024/03/07 13:24:06;;;;;;;4.85;2.85;;;;;;;;;;5089069;28;20522;-75
2024/03/07 13:26:32;;;;;;;15.00;3.00;;;;;;;;;;5088095;28;20485;-75
2024/03/07 13:29:01;;;;;;;2.97;2.78;;;;;;;;;;5067440;28;20132;-75
2024/03/07 13:31:28;;;;;;;3.20;3.00;;;;;;;;;;5070488;28;20032;-76
2024/03/07 13:33:54;;;;;;;5.47;3.20;;;;;;;;;;5088445;28;20038;-75
2024/03/07 13:36:23;;;;;;;3.75;3.40;;;;;;;;;;5089191;28;20032;-74
2024/03/07 13:38:51;;;;;;;3.60;3.30;;;;;;;;;;5086108;28;20044;-75
2024/03/07 13:41:20;;;;;;;3.47;3.17;;;;;;;;;;5085351;28;20052;-74
2024/03/07 13:43:47;;;;;;;3.55;3.15;;;;;;;;;;5068057;28;20036;-75
2024/03/07 13:46:14;;;;;;;5.93;3.13;;;;;;;;;;5080369;28;20028;-74
2024/03/07 13:48:43;;;;;;;2.67;2.50;;;;;;;;;;5082946;28;20052;-74
2024/03/07 13:51:10;;;;;;;4.47;3.45;;;;;;;;;;5061962;28;20060;-74
2024/03/07 13:53:47;;;;;;;3.92;3.53;;;;;;;;;;5057514;28;20041;-75
2024/03/07 13:56:13;;;;;;;2.55;2.35;;;;;;;;;;5078759;28;20334;-76
2024/03/07 13:58:58;;;;;;;5.80;2.92;;;;;;;;;;5077639;28;20048;-75
2024/03/07 14:01:45;;;;;;;5.47;2.97;;;;;;;;;;5068918;28;20150;-76
2024/03/07 14:04:23;;;;;;;3.92;3.10;;;;;;;;;;5079689;28;20377;-76
2024/03/07 14:07:15;;;;;;;4.75;3.63;;;;;;;;;;5082567;28;20043;-76
2024/03/07 14:09:44;;;;;;;7.72;3.88;;;;;;;;;;5063482;28;20052;-76
2024/03/07 14:12:34;;;;;;;5.80;3.78;;;;;;;;;;5076587;28;20032;-75
2024/03/07 14:15:00;;;;;;;3.75;3.45;;;;;;;;;;5083387;28;20028;-75
2024/03/07 14:17:45;;;;;;;3.80;3.28;;;;;;;;;;5077350;28;20150;-75
2024/03/07 14:20:20;;;;;;;4.07;3.50;;;;;;;;;;5054825;28;20035;-76
2024/03/07 14:23:05;;;;;;;5.88;3.13;;;;;;;;;;5060929;28;20506;-76
2024/03/07 14:25:34;;;;;;;2.80;2.60;;;;;;;;;;5082626;28;20043;-76
2024/03/07 14:28:18;;;;;;;3.33;2.70;;;;;;;;;;5075152;28;20066;-75
2024/03/07 14:30:56;;;;;;;3.65;3.00;;;;;;;;;;5063865;28;20412;-76
2024/03/07 14:33:35;;;;;;;3.05;2.75;;;;;;;;;;5076153;28;20063;-76
2024/03/07 14:36:07;;;;;;;4.03;2.85;;;;;;;;;;5032628;28;20554;-76
2024/03/07 14:38:40;;;;;;;3.50;3.20;;;;;;;;;;5079370;28;20056;-76
2024/03/07 14:41:07;;;;;;;3.22;2.90;;;;;;;;;;5079772;28;20085;-75